sensor_id;sensor_type;location;lat;lon;timestamp;P1;durP1;ratioP1;P2;durP2;ratioP2
16760;SDS011;8498;52.516;13.790;2023-07-28T00:04:26;3.00;;;2.80;;
16760;SDS011;8498;52.516;13.790;2023-07-28T00:09:49;2.97;;;2.78;;
16760;SDS011;8498;52.516;13.790;2023-07-28T00:15:11;2.65;;;2.45;;
16760;SDS011;8498;52.516;13.790;2023-07-28T00:20:34;2.10;;;2.00;;
16760;SDS011;8498;52.516;13.790;2023-07-28T00:25:56;2.67;;;1.90;;
16760;SDS011;8498;52.516;13.790;2023-07-28T00:31:19;1.98;;;1.88;;
16760;SDS011;8498;52.516;13.790;2023-07-28T00:36:41;1.55;;;1.55;;
16760;SDS011;8498;52.516;13.790;2023-07-28T00:42:04;1.33;;;1.33;;
16760;SDS011;8498;52.516;13.790;2023-07-28T00:47:27;2.10;;;1.50;;
16760;SDS011;8498;52.516;13.790;2023-07-28T00:52:49;1.38;;;1.38;;
16760;SDS011;8498;52.516;13.790;2023-07-28T00:58:12;1.10;;;1.10;;
16760;SDS011;8498;52.516;13.790;2023-07-28T01:03:35;1.42;;;1.33;;
16760;SDS011;8498;52.516;13.790;2023-07-28T01:09:02;1.67;;;1.60;;
16760;SDS011;8498;52.516;13.790;2023-07-28T01:14:28;1.90;;;1.80;;
16760;SDS011;8498;52.516;13.790;2023-07-28T01:19:51;2.72;;;2.22;;
16760;SDS011;8498;52.516;13.790;2023-07-28T01:25:36;2.17;;;2.08;;
16760;SDS011;8498;52.516;13.790;2023-07-28T01:31:09;5.97;;;2.50;;
16760;SDS011;8498;52.516;13.790;2023-07-28T01:36:32;3.22;;;2.30;;
16760;SDS011;8498;52.516;13.790;2023-07-28T01:41:55;2.38;;;2.28;;
16760;SDS011;8498;52.516;13.790;2023-07-28T01:47:18;5.57;;;2.40;;
16760;SDS011;8498;52.516;13.790;2023-07-28T01:52:41;2.67;;;2.30;;
16760;SDS011;8498;52.516;13.790;2023-07-28T01:58:04;2.05;;;1.95;;
16760;SDS011;8498;52.516;13.790;2023-07-28T02:03:26;2.20;;;2.00;;
16760;SDS011;8498;52.516;13.790;2023-07-28T02:08:48;2.30;;;2.10;;
16760;SDS011;8498;52.516;13.790;2023-07-28T02:14:11;2.50;;;2.30;;
16760;SDS011;8498;52.516;13.790;2023-07-28T02:19:34;7.07;;;2.50;;
16760;SDS011;8498;52.516;13.790;2023-07-28T02:24:56;5.05;;;2.70;;
16760;SDS011;8498;52.516;13.790;2023-07-28T02:30:23;2.78;;;2.55;;
16760;SDS011;8498;52.516;13.790;2023-07-28T02:35:46;3.25;;;2.05;;
16760;SDS011;8498;52.516;13.790;2023-07-28T02:41:08;2.88;;;2.13;;
16760;SDS011;8498;52.516;13.790;2023-07-28T02:46:31;3.28;;;2.30;;
16760;SDS011;8498;52.516;13.790;2023-07-28T02:51:54;2.80;;;2.45;;
16760;SDS011;8498;52.516;13.790;2023-07-28T02:57:16;2.72;;;2.53;;
16760;SDS011;8498;52.516;13.790;2023-07-28T03:02:42;3.10;;;2.40;;
16760;SDS011;8498;52.516;13.790;2023-07-28T03:08:05;2.33;;;2.13;;
16760;SDS011;8498;52.516;13.790;2023-07-28T03:13:28;4.32;;;1.95;;
16760;SDS011;8498;52.516;13.790;2023-07-28T03:18:51;3.38;;;2.83;;
16760;SDS011;8498;52.516;13.790;2023-07-28T03:24:13;5.88;;;2.60;;
16760;SDS011;8498;52.516;13.790;2023-07-28T03:29:36;3.53;;;2.95;;
16760;SDS011;8498;52.516;13.790;2023-07-28T03:34:59;5.15;;;2.75;;
16760;SDS011;8498;52.516;13.790;2023-07-28T03:40:24;4.07;;;2.78;;
16760;SDS011;8498;52.516;13.790;2023-07-28T03:45:49;2.75;;;2.47;;
16760;SDS011;8498;52.516;13.790;2023-07-28T03:51:11;5.25;;;3.08;;
16760;SDS011;8498;52.516;13.790;2023-07-28T03:56:34;5.18;;;3.05;;
16760;SDS011;8498;52.516;13.790;2023-07-28T04:01:57;6.03;;;3.17;;
16760;SDS011;8498;52.516;13.790;2023-07-28T04:07:20;5.47;;;3.28;;
16760;SDS011;8498;52.516;13.790;2023-07-28T04:12:43;4.85;;;3.30;;
16760;SDS011;8498;52.516;13.790;2023-07-28T04:18:05;3.67;;;3.05;;
16760;SDS011;8498;52.516;13.790;2023-07-28T04:23:28;6.60;;;3.33;;
16760;SDS011;8498;52.516;13.790;2023-07-28T04:28:51;6.25;;;3.65;;
16760;SDS011;8498;52.516;13.790;2023-07-28T04:34:14;8.65;;;3.75;;
16760;SDS011;8498;52.516;13.790;2023-07-28T04:39:56;5.38;;;4.07;;
16760;SDS011;8498;52.516;13.790;2023-07-28T04:45:23;7.55;;;4.28;;
16760;SDS011;8498;52.516;13.790;2023-07-28T04:50:46;7.13;;;3.78;;
16760;SDS011;8498;52.516;13.790;2023-07-28T04:56:32;7.43;;;3.88;;
16760;SDS011;8498;52.516;13.790;2023-07-28T05:01:55;6.15;;;4.07;;
16760;SDS011;8498;52.516;13.790;2023-07-28T05:07:17;5.65;;;3.88;;
16760;SDS011;8498;52.516;13.790;2023-07-28T05:12:40;7.75;;;4.20;;
16760;SDS011;8498;52.516;13.790;2023-07-28T05:18:02;5.72;;;4.25;;
16760;SDS011;8498;52.516;13.790;2023-07-28T05:23:42;5.93;;;4.72;;
16760;SDS011;8498;52.516;13.790;2023-07-28T05:29:05;5.82;;;4.63;;
16760;SDS011;8498;52.516;13.790;2023-07-28T05:34:27;7.38;;;4.70;;
16760;SDS011;8498;52.516;13.790;2023-07-28T05:39:49;5.15;;;4.13;;
16760;SDS011;8498;52.516;13.790;2023-07-28T05:45:13;6.75;;;4.72;;
16760;SDS011;8498;52.516;13.790;2023-07-28T05:50:37;8.75;;;5.05;;
16760;SDS011;8498;52.516;13.790;2023-07-28T05:56:00;7.45;;;4.93;;
16760;SDS011;8498;52.516;13.790;2023-07-28T06:01:25;9.07;;;4.75;;
16760;SDS011;8498;52.516;13.790;2023-07-28T06:07:09;6.28;;;4.78;;
16760;SDS011;8498;52.516;13.790;2023-07-28T06:12:32;8.68;;;4.10;;
16760;SDS011;8498;52.516;13.790;2023-07-28T06:17:58;6.28;;;4.80;;
16760;SDS011;8498;52.516;13.790;2023-07-28T06:23:21;5.93;;;4.72;;
16760;SDS011;8498;52.516;13.790;2023-07-28T06:28:43;5.50;;;4.43;;
16760;SDS011;8498;52.516;13.790;2023-07-28T06:34:06;8.25;;;4.63;;
16760;SDS011;8498;52.516;13.790;2023-07-28T06:39:29;7.57;;;4.68;;
16760;SDS011;8498;52.516;13.790;2023-07-28T06:44:52;5.28;;;4.28;;
16760;SDS011;8498;52.516;13.790;2023-07-28T06:50:15;6.13;;;4.57;;
16760;SDS011;8498;52.516;13.790;2023-07-28T06:55:37;6.38;;;3.90;;
16760;SDS011;8498;52.516;13.790;2023-07-28T07:01:01;5.18;;;4.07;;
16760;SDS011;8498;52.516;13.790;2023-07-28T07:06:24;6.35;;;4.07;;
16760;SDS011;8498;52.516;13.790;2023-07-28T07:11:46;5.00;;;4.43;;
16760;SDS011;8498;52.516;13.790;2023-07-28T07:17:09;5.55;;;4.25;;
16760;SDS011;8498;52.516;13.790;2023-07-28T07:22:31;5.50;;;4.10;;
16760;SDS011;8498;52.516;13.790;2023-07-28T07:27:53;5.47;;;4.50;;
16760;SDS011;8498;52.516;13.790;2023-07-28T07:33:17;6.38;;;4.70;;
16760;SDS011;8498;52.516;13.790;2023-07-28T07:38:41;5.55;;;3.70;;
16760;SDS011;8498;52.516;13.790;2023-07-28T07:44:03;5.15;;;3.90;;
16760;SDS011;8498;52.516;13.790;2023-07-28T07:49:26;4.18;;;3.78;;
16760;SDS011;8498;52.516;13.790;2023-07-28T07:54:48;5.93;;;4.15;;
16760;SDS011;8498;52.516;13.790;2023-07-28T08:00:11;4.07;;;3.65;;
16760;SDS011;8498;52.516;13.790;2023-07-28T08:05:34;5.10;;;3.80;;
16760;SDS011;8498;52.516;13.790;2023-07-28T08:10:57;3.92;;;3.50;;
16760;SDS011;8498;52.516;13.790;2023-07-28T08:16:19;2.97;;;2.78;;
16760;SDS011;8498;52.516;13.790;2023-07-28T08:21:42;3.13;;;2.90;;
16760;SDS011;8498;52.516;13.790;2023-07-28T08:27:05;3.30;;;3.00;;
16760;SDS011;8498;52.516;13.790;2023-07-28T08:32:28;2.65;;;2.45;;
16760;SDS011;8498;52.516;13.790;2023-07-28T08:37:50;4.03;;;2.88;;
16760;SDS011;8498;52.516;13.790;2023-07-28T08:43:13;2.10;;;2.00;;
16760;SDS011;8498;52.516;13.790;2023-07-28T08:48:36;1.85;;;1.75;;
16760;SDS011;8498;52.516;13.790;2023-07-28T08:53:58;2.38;;;2.08;;
16760;SDS011;8498;52.516;13.790;2023-07-28T08:59:21;1.98;;;1.85;;
16760;SDS011;8498;52.516;13.790;2023-07-28T09:04:45;1.75;;;1.65;;
16760;SDS011;8498;52.516;13.790;2023-07-28T09:10:10;3.90;;;2.08;;
16760;SDS011;8498;52.516;13.790;2023-07-28T09:15:35;2.13;;;1.92;;
16760;SDS011;8498;52.516;13.790;2023-07-28T09:20:57;2.08;;;1.98;;
16760;SDS011;8498;52.516;13.790;2023-07-28T09:26:20;2.20;;;2.00;;
16760;SDS011;8498;52.516;13.790;2023-07-28T09:31:43;1.95;;;1.85;;
16760;SDS011;8498;52.516;13.790;2023-07-28T09:37:06;1.88;;;1.77;;
16760;SDS011;8498;52.516;13.790;2023-07-28T09:42:31;1.60;;;1.50;;
16760;SDS011;8498;52.516;13.790;2023-07-28T09:47:55;1.85;;;1.75;;
16760;SDS011;8498;52.516;13.790;2023-07-28T09:53:21;1.90;;;1.80;;
16760;SDS011;8498;52.516;13.790;2023-07-28T09:58:49;1.80;;;1.70;;
16760;SDS011;8498;52.516;13.790;2023-07-28T10:04:13;2.38;;;1.70;;
16760;SDS011;8498;52.516;13.790;2023-07-28T10:09:37;2.15;;;2.05;;
16760;SDS011;8498;52.516;13.790;2023-07-28T10:15:01;1.80;;;1.70;;
16760;SDS011;8498;52.516;13.790;2023-07-28T10:20:35;1.98;;;1.85;;
16760;SDS011;8498;52.516;13.790;2023-07-28T10:26:01;4.32;;;1.98;;
16760;SDS011;8498;52.516;13.790;2023-07-28T10:31:29;3.08;;;2.10;;
16760;SDS011;8498;52.516;13.790;2023-07-28T10:36:56;2.03;;;1.90;;
16760;SDS011;8498;52.516;13.790;2023-07-28T10:42:21;2.20;;;1.80;;
16760;SDS011;8498;52.516;13.790;2023-07-28T10:47:47;1.98;;;1.88;;
16760;SDS011;8498;52.516;13.790;2023-07-28T10:53:10;1.85;;;1.70;;
16760;SDS011;8498;52.516;13.790;2023-07-28T10:58:33;2.05;;;1.80;;
16760;SDS011;8498;52.516;13.790;2023-07-28T11:03:56;1.88;;;1.77;;
16760;SDS011;8498;52.516;13.790;2023-07-28T11:09:21;2.65;;;2.45;;
16760;SDS011;8498;52.516;13.790;2023-07-28T11:14:47;2.70;;;1.98;;
16760;SDS011;8498;52.516;13.790;2023-07-28T11:25:40;0.95;;;0.80;;
16760;SDS011;8498;52.516;13.790;2023-07-28T11:31:03;0.95;;;0.95;;
16760;SDS011;8498;52.516;13.790;2023-07-28T11:36:27;1.00;;;1.00;;
16760;SDS011;8498;52.516;13.790;2023-07-28T11:41:51;1.17;;;1.17;;
16760;SDS011;8498;52.516;13.790;2023-07-28T11:47:17;2.15;;;1.40;;
16760;SDS011;8498;52.516;13.790;2023-07-28T11:52:40;1.42;;;1.33;;
16760;SDS011;8498;52.516;13.790;2023-07-28T11:58:07;1.60;;;1.50;;
16760;SDS011;8498;52.516;13.790;2023-07-28T12:03:30;1.65;;;1.48;;
16760;SDS011;8498;52.516;13.790;2023-07-28T12:09:03;1.63;;;1.52;;
16760;SDS011;8498;52.516;13.790;2023-07-28T12:14:30;1.55;;;1.45;;
16760;SDS011;8498;52.516;13.790;2023-07-28T12:25:34;2.33;;;1.70;;
16760;SDS011;8498;52.516;13.790;2023-07-28T12:30:58;2.50;;;1.60;;
16760;SDS011;8498;52.516;13.790;2023-07-28T12:36:21;1.60;;;1.50;;
16760;SDS011;8498;52.516;13.790;2023-07-28T12:42:04;2.30;;;2.05;;
16760;SDS011;8498;52.516;13.790;2023-07-28T12:47:33;2.10;;;1.90;;
16760;SDS011;8498;52.516;13.790;2023-07-28T12:52:59;3.42;;;2.33;;
16760;SDS011;8498;52.516;13.790;2023-07-28T12:58:36;2.05;;;1.95;;
16760;SDS011;8498;52.516;13.790;2023-07-28T13:04:02;2.85;;;1.85;;
16760;SDS011;8498;52.516;13.790;2023-07-28T13:09:24;3.30;;;1.85;;
16760;SDS011;8498;52.516;13.790;2023-07-28T13:14:50;2.00;;;1.90;;
16760;SDS011;8498;52.516;13.790;2023-07-28T13:20:12;2.65;;;2.45;;
16760;SDS011;8498;52.516;13.790;2023-07-28T13:25:35;2.95;;;2.08;;
16760;SDS011;8498;52.516;13.790;2023-07-28T13:30:58;2.00;;;1.90;;
16760;SDS011;8498;52.516;13.790;2023-07-28T13:36:21;1.88;;;1.77;;
16760;SDS011;8498;52.516;13.790;2023-07-28T13:41:44;2.03;;;1.92;;
16760;SDS011;8498;52.516;13.790;2023-07-28T13:47:07;1.70;;;1.60;;
16760;SDS011;8498;52.516;13.790;2023-07-28T13:52:29;1.42;;;1.33;;
16760;SDS011;8498;52.516;13.790;2023-07-28T13:57:53;1.70;;;1.60;;
16760;SDS011;8498;52.516;13.790;2023-07-28T14:03:17;1.40;;;1.40;;
16760;SDS011;8498;52.516;13.790;2023-07-28T14:08:40;1.70;;;1.60;;
16760;SDS011;8498;52.516;13.790;2023-07-28T14:14:02;1.60;;;1.50;;
16760;SDS011;8498;52.516;13.790;2023-07-28T14:19:25;1.13;;;1.10;;
16760;SDS011;8498;52.516;13.790;2023-07-28T14:24:50;1.25;;;1.25;;
16760;SDS011;8498;52.516;13.790;2023-07-28T14:30:13;1.30;;;1.30;;
16760;SDS011;8498;52.516;13.790;2023-07-28T14:35:36;1.65;;;1.55;;
16760;SDS011;8498;52.516;13.790;2023-07-28T14:40:58;2.05;;;1.45;;
16760;SDS011;8498;52.516;13.790;2023-07-28T14:46:22;1.55;;;1.48;;
16760;SDS011;8498;52.516;13.790;2023-07-28T14:51:47;1.60;;;1.50;;
16760;SDS011;8498;52.516;13.790;2023-07-28T14:57:09;1.33;;;1.33;;
16760;SDS011;8498;52.516;13.790;2023-07-28T15:02:54;1.70;;;1.60;;
16760;SDS011;8498;52.516;13.790;2023-07-28T15:08:17;1.35;;;1.25;;
16760;SDS011;8498;52.516;13.790;2023-07-28T15:13:39;1.20;;;1.20;;
16760;SDS011;8498;52.516;13.790;2023-07-28T15:19:02;1.50;;;1.40;;
16760;SDS011;8498;52.516;13.790;2023-07-28T15:24:24;4.40;;;2.10;;
16760;SDS011;8498;52.516;13.790;2023-07-28T15:29:47;1.80;;;1.70;;
16760;SDS011;8498;52.516;13.790;2023-07-28T15:35:09;1.52;;;1.50;;
16760;SDS011;8498;52.516;13.790;2023-07-28T15:40:32;1.95;;;1.80;;
16760;SDS011;8498;52.516;13.790;2023-07-28T15:45:55;2.78;;;1.75;;
16760;SDS011;8498;52.516;13.790;2023-07-28T15:51:18;1.70;;;1.60;;
16760;SDS011;8498;52.516;13.790;2023-07-28T15:56:40;1.38;;;1.38;;
16760;SDS011;8498;52.516;13.790;2023-07-28T16:02:03;1.73;;;1.63;;
16760;SDS011;8498;52.516;13.790;2023-07-28T16:07:26;1.90;;;1.80;;
16760;SDS011;8498;52.516;13.790;2023-07-28T16:12:51;2.10;;;1.70;;
16760;SDS011;8498;52.516;13.790;2023-07-28T16:18:13;1.80;;;1.70;;
16760;SDS011;8498;52.516;13.790;2023-07-28T16:23:36;1.90;;;1.67;;
16760;SDS011;8498;52.516;13.790;2023-07-28T16:28:58;1.92;;;1.83;;
16760;SDS011;8498;52.516;13.790;2023-07-28T16:34:21;1.50;;;1.50;;
16760;SDS011;8498;52.516;13.790;2023-07-28T16:39:43;2.22;;;1.50;;
16760;SDS011;8498;52.516;13.790;2023-07-28T16:45:05;1.83;;;1.48;;
16760;SDS011;8498;52.516;13.790;2023-07-28T16:50:28;1.90;;;1.80;;
16760;SDS011;8498;52.516;13.790;2023-07-28T16:55:51;2.15;;;1.90;;
16760;SDS011;8498;52.516;13.790;2023-07-28T17:01:13;1.80;;;1.70;;
16760;SDS011;8498;52.516;13.790;2023-07-28T17:06:36;6.45;;;1.88;;
16760;SDS011;8498;52.516;13.790;2023-07-28T17:11:58;1.73;;;1.63;;
16760;SDS011;8498;52.516;13.790;2023-07-28T17:17:21;2.05;;;1.95;;
16760;SDS011;8498;52.516;13.790;2023-07-28T17:22:43;2.92;;;2.00;;
16760;SDS011;8498;52.516;13.790;2023-07-28T17:28:06;2.65;;;2.00;;
16760;SDS011;8498;52.516;13.790;2023-07-28T17:33:28;4.75;;;2.85;;
16760;SDS011;8498;52.516;13.790;2023-07-28T17:38:51;2.50;;;2.40;;
16760;SDS011;8498;52.516;13.790;2023-07-28T17:44:13;5.43;;;2.83;;
16760;SDS011;8498;52.516;13.790;2023-07-28T17:49:36;8.05;;;4.25;;
16760;SDS011;8498;52.516;13.790;2023-07-28T17:54:59;4.22;;;3.00;;
16760;SDS011;8498;52.516;13.790;2023-07-28T18:00:22;3.78;;;3.47;;
16760;SDS011;8498;52.516;13.790;2023-07-28T18:05:45;3.78;;;3.47;;
16760;SDS011;8498;52.516;13.790;2023-07-28T18:11:07;5.50;;;3.60;;
16760;SDS011;8498;52.516;13.790;2023-07-28T18:16:29;6.88;;;4.03;;
16760;SDS011;8498;52.516;13.790;2023-07-28T18:21:51;5.03;;;4.53;;
16760;SDS011;8498;52.516;13.790;2023-07-28T18:27:14;6.93;;;5.43;;
16760;SDS011;8498;52.516;13.790;2023-07-28T18:32:36;7.30;;;5.20;;
16760;SDS011;8498;52.516;13.790;2023-07-28T18:37:58;5.93;;;4.13;;
16760;SDS011;8498;52.516;13.790;2023-07-28T18:43:21;5.45;;;3.83;;
16760;SDS011;8498;52.516;13.790;2023-07-28T18:48:44;3.72;;;3.42;;
16760;SDS011;8498;52.516;13.790;2023-07-28T18:54:06;3.92;;;3.58;;
16760;SDS011;8498;52.516;13.790;2023-07-28T18:59:29;4.95;;;3.40;;
16760;SDS011;8498;52.516;13.790;2023-07-28T19:04:52;5.45;;;3.95;;
16760;SDS011;8498;52.516;13.790;2023-07-28T19:10:14;3.60;;;3.30;;
16760;SDS011;8498;52.516;13.790;2023-07-28T19:15:37;3.92;;;3.53;;
16760;SDS011;8498;52.516;13.790;2023-07-28T19:21:08;4.78;;;3.25;;
16760;SDS011;8498;52.516;13.790;2023-07-28T19:26:31;4.53;;;3.55;;
16760;SDS011;8498;52.516;13.790;2023-07-28T19:31:53;4.82;;;3.40;;
16760;SDS011;8498;52.516;13.790;2023-07-28T19:37:16;4.72;;;3.17;;
16760;SDS011;8498;52.516;13.790;2023-07-28T19:42:44;3.97;;;3.63;;
16760;SDS011;8498;52.516;13.790;2023-07-28T19:48:07;6.72;;;3.72;;
16760;SDS011;8498;52.516;13.790;2023-07-28T19:53:30;9.05;;;3.90;;
16760;SDS011;8498;52.516;13.790;2023-07-28T19:58:53;7.53;;;4.35;;
16760;SDS011;8498;52.516;13.790;2023-07-28T20:04:16;6.22;;;3.95;;
16760;SDS011;8498;52.516;13.790;2023-07-28T20:09:38;6.03;;;4.00;;
16760;SDS011;8498;52.516;13.790;2023-07-28T20:15:01;4.78;;;4.30;;
16760;SDS011;8498;52.516;13.790;2023-07-28T20:20:25;6.78;;;4.43;;
16760;SDS011;8498;52.516;13.790;2023-07-28T20:25:48;5.43;;;4.18;;
16760;SDS011;8498;52.516;13.790;2023-07-28T20:31:11;8.00;;;3.55;;
16760;SDS011;8498;52.516;13.790;2023-07-28T20:36:34;3.72;;;3.42;;
16760;SDS011;8498;52.516;13.790;2023-07-28T20:41:56;5.90;;;4.30;;
16760;SDS011;8498;52.516;13.790;2023-07-28T20:47:20;4.82;;;4.30;;
16760;SDS011;8498;52.516;13.790;2023-07-28T20:52:43;6.70;;;5.13;;
16760;SDS011;8498;52.516;13.790;2023-07-28T20:58:05;7.00;;;4.65;;
16760;SDS011;8498;52.516;13.790;2023-07-28T21:03:28;5.68;;;4.55;;
16760;SDS011;8498;52.516;13.790;2023-07-28T21:08:50;7.82;;;4.65;;
16760;SDS011;8498;52.516;13.790;2023-07-28T21:14:13;7.82;;;4.90;;
16760;SDS011;8498;52.516;13.790;2023-07-28T21:19:35;5.78;;;4.38;;
16760;SDS011;8498;52.516;13.790;2023-07-28T21:25:00;6.22;;;4.93;;
16760;SDS011;8498;52.516;13.790;2023-07-28T21:30:23;6.97;;;4.35;;
16760;SDS011;8498;52.516;13.790;2023-07-28T21:35:47;7.53;;;4.78;;
16760;SDS011;8498;52.516;13.790;2023-07-28T21:41:10;6.72;;;4.57;;
16760;SDS011;8498;52.516;13.790;2023-07-28T21:46:32;8.60;;;4.40;;
16760;SDS011;8498;52.516;13.790;2023-07-28T21:51:57;5.45;;;4.68;;
16760;SDS011;8498;52.516;13.790;2023-07-28T21:57:20;8.35;;;6.10;;
16760;SDS011;8498;52.516;13.790;2023-07-28T22:02:43;8.23;;;5.53;;
16760;SDS011;8498;52.516;13.790;2023-07-28T22:08:09;7.93;;;5.18;;
16760;SDS011;8498;52.516;13.790;2023-07-28T22:13:36;11.00;;;5.55;;
16760;SDS011;8498;52.516;13.790;2023-07-28T22:18:59;4.97;;;4.47;;
16760;SDS011;8498;52.516;13.790;2023-07-28T22:24:22;8.43;;;5.07;;
16760;SDS011;8498;52.516;13.790;2023-07-28T22:29:44;5.20;;;4.70;;
16760;SDS011;8498;52.516;13.790;2023-07-28T22:35:07;11.88;;;8.05;;
16760;SDS011;8498;52.516;13.790;2023-07-28T22:40:30;7.05;;;5.13;;
16760;SDS011;8498;52.516;13.790;2023-07-28T22:45:53;7.80;;;4.88;;
16760;SDS011;8498;52.516;13.790;2023-07-28T22:51:16;5.78;;;5.05;;
16760;SDS011;8498;52.516;13.790;2023-07-28T22:56:38;7.53;;;5.10;;
16760;SDS011;8498;52.516;13.790;2023-07-28T23:02:01;13.52;;;6.00;;
16760;SDS011;8498;52.516;13.790;2023-07-28T23:07:23;7.88;;;5.50;;
16760;SDS011;8498;52.516;13.790;2023-07-28T23:12:46;6.82;;;5.22;;
16760;SDS011;8498;52.516;13.790;2023-07-28T23:18:08;10.25;;;5.78;;
16760;SDS011;8498;52.516;13.790;2023-07-28T23:23:31;14.18;;;8.05;;
16760;SDS011;8498;52.516;13.790;2023-07-28T23:28:53;15.15;;;7.90;;
16760;SDS011;8498;52.516;13.790;2023-07-28T23:34:16;14.23;;;8.23;;
16760;SDS011;8498;52.516;13.790;2023-07-28T23:39:38;12.00;;;6.25;;
16760;SDS011;8498;52.516;13.790;2023-07-28T23:45:01;8.27;;;5.97;;
16760;SDS011;8498;52.516;13.790;2023-07-28T23:50:23;9.25;;;5.50;;
16760;SDS011;8498;52.516;13.790;2023-07-28T23:55:45;7.88;;;4.90;;
